DW5978 Whyalla SA AU current weather conditions

sailwx.info

Wind from 204 at 4 knots gusting 8

Air temperature 12.2° C
Dewpoint 9.2° C

Last reported at 2017-Jun-29 00:58 UTC.
Time now 2017-Jun-29 02:09 UTC

Location: S 33°01' E 137°32'.
View on Google Maps.

See reports from other nearby stations

  
Tides and Currents Weather Stations Pressure Air Temp Water Temp Dewpoint Dewpoint Depression Visibility Wind Speed Wind Dir Waves Ship Positions
date/time (UTC)wind fromknots sea level pressurealtimeterstation pressurevisibilityair tempwater tempwave heightnotes
2017-Jun-29 00:58 204 4 gusting 8 12.2
2017-Jun-29 00:43 157 5 gusting 13 12.8
2017-Jun-29 00:28 177 6 gusting 13 12.8
2017-Jun-29 00:13 240 4 gusting 13 12.8
2017-Jun-28 23:58 209 6 gusting 11 12.2
2017-Jun-28 23:43 232 4 gusting 7 11.7
2017-Jun-28 23:28 241 4 gusting 7 10.6
2017-Jun-28 23:13 204 3 gusting 7 10.0
2017-Jun-28 22:58 234 3 gusting 6 9.4
2017-Jun-28 22:43 224 2 gusting 6 9.4
2017-Jun-28 22:28 270 1 gusting 5 8.3
2017-Jun-28 22:13 268 2 gusting 4 8.3
2017-Jun-28 21:58 276 0 gusting 3 8.3
2017-Jun-28 21:43 236 1 gusting 4 8.3
2017-Jun-28 21:28 265 1 gusting 3 8.3
2017-Jun-28 21:13 263 1 gusting 4 8.3
2017-Jun-28 20:58 266 2 gusting 7 9.4
2017-Jun-28 20:43 228 3 gusting 7 10.0
2017-Jun-28 20:28 255 2 gusting 5 8.9
2017-Jun-28 20:13 251 1 gusting 3 8.3
2017-Jun-28 19:58 221 3 gusting 7 8.3
2017-Jun-28 19:42 251 1 gusting 4 8.3
2017-Jun-28 19:27 214 2 gusting 4 8.3
2017-Jun-28 19:13 255 3 gusting 7 8.3
2017-Jun-28 18:57 275 3 gusting 6 7.8
2017-Jun-28 18:42 278 1 gusting 3 7.8
2017-Jun-28 18:27 272 1 gusting 5 7.8
2017-Jun-28 18:12 283 1 gusting 4 7.2
2017-Jun-28 17:57 282 2 gusting 4 7.2
2017-Jun-28 17:42 270 2 gusting 6 7.8
2017-Jun-28 17:27 248 3 gusting 6 7.8
2017-Jun-28 17:12 255 2 gusting 6 7.8
2017-Jun-28 16:57 245 2 gusting 7 7.2
2017-Jun-28 16:42 296 0 gusting 1 6.7
2017-Jun-28 16:27 330 1 gusting 2 6.1
2017-Jun-28 16:12 335 1 gusting 3 6.1
2017-Jun-28 15:57 330 1 gusting 2 6.1
2017-Jun-28 15:42 335 1 gusting 3 5.6
2017-Jun-28 15:27 349 1 gusting 2 5.0
2017-Jun-28 15:12 349 1 gusting 2 5.0
2017-Jun-28 14:57 308 0 gusting 2 5.0
2017-Jun-28 14:42 344 0 gusting 2 5.6
2017-Jun-28 14:27 269 0 gusting 1 5.6
2017-Jun-28 14:12 268 0 gusting 2 6.1
2017-Jun-28 13:57 266 2 gusting 5 7.2
2017-Jun-28 13:42 260 1 gusting 5 7.2
2017-Jun-28 13:27 238 2 gusting 8 8.3
2017-Jun-28 13:12 214 3 gusting 9 8.3
2017-Jun-28 12:57 244 8 gusting 14 8.9
2017-Jun-28 12:42 251 3 gusting 5 8.9
2017-Jun-28 12:27 275 2 gusting 4 8.9
2017-Jun-28 12:12 222 0 gusting 3 8.9
2017-Jun-28 11:57 209 2 gusting 5 8.9
2017-Jun-28 11:42 236 5 gusting 7 9.4
2017-Jun-28 11:27 235 4 gusting 9 9.4
2017-Jun-28 11:12 255 4 gusting 9 9.4
2017-Jun-28 10:57 237 6 gusting 13 9.4
2017-Jun-28 10:42 249 4 gusting 10 9.4
2017-Jun-28 10:27 226 6 gusting 11 10.0
2017-Jun-28 10:12 197 7 gusting 12 10.0
2017-Jun-28 09:57 226 5 gusting 10 10.0
2017-Jun-28 09:41 253 4 gusting 9 10.6
2017-Jun-28 09:26 237 3 gusting 7 10.6
2017-Jun-28 09:11 222 3 gusting 11 10.6
2017-Jun-28 08:56 214 0 gusting 2 11.1
2017-Jun-28 08:41 204 11.1
2017-Jun-28 08:26 204 0 gusting 1 11.1
2017-Jun-28 08:12 204 11.1
2017-Jun-28 07:56 204 11.1
2017-Jun-28 07:41 204 0 gusting 5 11.1
2017-Jun-28 07:26 228 1 gusting 4 11.1
2017-Jun-28 07:11 224 2 gusting 5 11.1
2017-Jun-28 06:56 204 1 gusting 6 11.1
2017-Jun-28 06:41 236 3 gusting 8 11.1
2017-Jun-28 06:26 250 4 gusting 9 11.7
2017-Jun-28 06:11 254 5 gusting 8 11.7
2017-Jun-28 05:56 251 5 gusting 12 13.3
2017-Jun-28 05:41 224 2 gusting 6 15.0
2017-Jun-28 05:26 135 1 gusting 3 15.6
2017-Jun-28 05:11 174 1 gusting 4 15.0
2017-Jun-28 04:56 140 1 gusting 4 15.0
2017-Jun-28 04:41 182 2 gusting 6 15.0
2017-Jun-28 04:26 137 2 gusting 6 15.6
2017-Jun-28 04:11 118 1 gusting 5 15.6
2017-Jun-28 03:56 130 1 gusting 4 15.0
2017-Jun-28 03:41 133 2 gusting 6 15.0
2017-Jun-28 03:26 171 2 gusting 6 15.0
2017-Jun-28 03:11 129 1 gusting 5 15.0
2017-Jun-28 02:56 226 2 gusting 6 15.0
2017-Jun-28 02:41 305 16.1
2017-Jun-28 02:26 256 3 gusting 6 15.6
2017-Jun-28 02:11 355 2 gusting 6 16.1
2017-Jun-28 01:56 293 0 gusting 4 15.6
2017-Jun-28 01:41 276 1 gusting 5 14.4
2017-Jun-28 01:26 239 2 gusting 3 14.4
2017-Jun-28 01:11 231 0 gusting 3 13.9
2017-Jun-28 00:56 263 0 gusting 3 12.8
2017-Jun-28 00:41 287 1 gusting 4 12.2
2017-Jun-28 00:26 280 0 gusting 3 11.1
2017-Jun-28 00:11 316 2 gusting 4 10.0
2017-Jun-27 23:56 320 2 gusting 5 9.4
2017-Jun-27 23:41 322 2 gusting 4 8.3
2017-Jun-27 23:26 319 0 gusting 3 7.8
2017-Jun-27 23:10 324 2 gusting 4 7.8
2017-Jun-27 22:56 345 1 gusting 4 7.8
2017-Jun-27 22:40 341 1 gusting 4 6.7
2017-Jun-27 22:25 331 2 gusting 4 6.7
2017-Jun-27 22:10 323 1 gusting 3 5.6
2017-Jun-27 21:55 338 1 gusting 3 5.6
2017-Jun-27 21:40 335 1 gusting 3 5.0
2017-Jun-27 21:25 327 2 gusting 3 5.0
2017-Jun-27 21:10 317 1 gusting 3 3.9
2017-Jun-27 20:55 336 0 gusting 2 3.9
2017-Jun-27 20:40 336 0 gusting 1 5.0
2017-Jun-27 20:25 336 0 gusting 1 5.0
2017-Jun-27 20:10 336 0 gusting 2 4.4
2017-Jun-27 19:55 333 1 gusting 2 4.4
2017-Jun-27 19:40 322 2 gusting 3 4.4
2017-Jun-27 19:25 343 1 gusting 2 4.4
2017-Jun-27 19:10 003 0 gusting 2 5.0
2017-Jun-27 18:55 004 1 gusting 2 3.9
2017-Jun-27 18:40 014 0 gusting 2 3.9
2017-Jun-27 18:25 015 0 gusting 2 3.9
2017-Jun-27 18:10 017 4.4
2017-Jun-27 17:55 017 3.9
2017-Jun-27 17:40 017 4.4
2017-Jun-27 17:25 297 5.0
2017-Jun-27 17:10 297 5.6
2017-Jun-27 16:55 297 5.6
2017-Jun-27 16:40 297 0 gusting 2 6.7
2017-Jun-27 16:25 311 0 gusting 2 5.6
2017-Jun-27 16:10 268 0 gusting 2 7.2
2017-Jun-27 15:55 265 6.7
2017-Jun-27 15:40 265 0 gusting 2 7.8
2017-Jun-27 15:25 357 0 gusting 1 7.8
2017-Jun-27 15:10 357 7.2
2017-Jun-27 14:55 357 0 gusting 1 7.8
2017-Jun-27 14:39 060 0 gusting 2 8.9
2017-Jun-27 14:24 070 8.3
2017-Jun-27 14:09 070 8.9
2017-Jun-27 13:54 070 9.4
2017-Jun-27 13:39 037 9.4
2017-Jun-27 13:24 037 8.3
2017-Jun-27 13:09 037 7.8
2017-Jun-27 12:54 037 0 gusting 1 8.3
2017-Jun-27 12:39 037 0 gusting 1 8.3
2017-Jun-27 12:24 037 0 gusting 1 8.9
2017-Jun-27 12:09 037 9.4
2017-Jun-27 11:54 037 10.0
2017-Jun-27 11:39 037 0 gusting 1 9.4
2017-Jun-27 11:24 037 0 gusting 2 9.4
2017-Jun-27 11:09 037 0 gusting 1 10.0
2017-Jun-27 10:54 030 0 gusting 2 10.0
2017-Jun-27 10:39 030 11.1
2017-Jun-27 10:24 030 0 gusting 3 11.7
2017-Jun-27 10:09 268 0 gusting 2 12.2
2017-Jun-27 09:54 222 3 gusting 5 11.7
2017-Jun-27 09:39 034 0 gusting 6 12.8
2017-Jun-27 09:24 058 4 gusting 7 12.8
2017-Jun-27 09:09 070 5 gusting 6 12.8
2017-Jun-27 08:54 075 3 gusting 6 12.2
2017-Jun-27 08:39 066 4 gusting 6 12.8
2017-Jun-27 08:24 060 2 gusting 5 12.8
2017-Jun-27 08:09 081 2 gusting 5 12.2
2017-Jun-27 07:54 091 2 gusting 4 13.3
2017-Jun-27 07:39 110 1 gusting 3 13.9
2017-Jun-27 07:24 117 1 gusting 5 14.4
2017-Jun-27 07:09 125 1 gusting 4 15.0
2017-Jun-27 06:54 151 2 gusting 6 15.0
2017-Jun-27 06:39 112 2 gusting 6 15.0
2017-Jun-27 06:24 100 2 gusting 6 15.6
2017-Jun-27 06:09 148 3 gusting 6 15.6
2017-Jun-27 05:54 137 3 gusting 6 16.1
2017-Jun-27 05:39 154 1 gusting 6 16.1
2017-Jun-27 05:24 128 2 gusting 6 16.1
2017-Jun-27 05:09 151 1 gusting 6 16.1
2017-Jun-27 04:54 165 1 gusting 6 16.7
2017-Jun-27 04:39 119 2 gusting 6 16.7
2017-Jun-27 04:24 061 1 gusting 3 16.7
2017-Jun-27 04:09 176 2 gusting 6 16.7
2017-Jun-27 03:54 263 17.8
2017-Jun-27 03:39 279 0 gusting 6 16.7
2017-Jun-27 03:24 268 16.1
2017-Jun-27 03:09 325 0 gusting 6 16.1
2017-Jun-27 02:54 002 0 gusting 6 15.6
2017-Jun-27 02:39 270 0 gusting 4 15.6
2017-Jun-27 02:24 349 0 gusting 2 15.6
2017-Jun-27 02:09 318 2 gusting 6 15.0